Time;durP1;ratioP1;P1;durP2;ratioP2;P2;SDS_P1;SDS_P2;PMS_P1;PMS_P2;Temp;Humidity;BMP_temperature;BMP_pressure;BME280_temperature;BME280_humidity;BME280_pressure;Samples;Min_cycle;Max_cycle;Signal;HPM_P1;HPM_P2
2021/01/10 00:00:52;;;;;;;37.08;20.17;;;;;;;;;;6187817;23;20095;-87
2021/01/10 00:03:20;;;;;;;37.15;21.35;;;;;;;;;;6188261;23;20024;-87
2021/01/10 00:05:46;;;;;;;38.97;20.80;;;;;;;;;;6187672;23;20032;-89
2021/01/10 00:08:12;;;;;;;34.25;18.75;;;;;;;;;;6188013;23;20017;-88
2021/01/10 00:10:40;;;;;;;34.70;17.75;;;;;;;;;;6188046;23;20319;-88
2021/01/10 00:13:06;;;;;;;34.90;20.60;;;;;;;;;;6187181;23;20028;-88
2021/01/10 00:15:33;;;;;;;35.60;19.50;;;;;;;;;;6187848;23;20021;-88
2021/01/10 00:18:00;;;;;;;41.40;20.70;;;;;;;;;;6187518;23;20023;-87
2021/01/10 00:20:27;;;;;;;35.13;19.27;;;;;;;;;;6187685;23;20028;-88
2021/01/10 00:22:54;;;;;;;39.33;21.45;;;;;;;;;;6187876;23;20205;-88
2021/01/10 00:25:21;;;;;;;36.92;19.58;;;;;;;;;;6188046;23;20514;-88
2021/01/10 00:27:53;;;;;;;35.45;19.27;;;;;;;;;;6188534;23;20021;-88
2021/01/10 00:30:21;;;;;;;32.53;19.02;;;;;;;;;;6188021;23;20095;-88
2021/01/10 00:32:48;;;;;;;29.88;17.77;;;;;;;;;;6186832;23;20024;-87
2021/01/10 00:35:14;;;;;;;35.75;18.98;;;;;;;;;;6188017;23;20636;-87
2021/01/10 00:37:47;;;;;;;32.95;17.98;;;;;;;;;;6187865;23;20021;-88
2021/01/10 00:40:14;;;;;;;32.55;17.83;;;;;;;;;;6187241;23;20088;-88
2021/01/10 00:42:41;;;;;;;32.42;17.05;;;;;;;;;;6187637;23;20032;-88
2021/01/10 00:45:12;;;;;;;36.83;19.00;;;;;;;;;;6187620;23;20025;-89
2021/01/10 00:47:38;;;;;;;32.50;17.60;;;;;;;;;;6187919;23;20032;-87
2021/01/10 00:50:07;;;;;;;32.80;18.25;;;;;;;;;;6187805;23;20378;-88
2021/01/10 00:52:33;;;;;;;33.83;18.08;;;;;;;;;;6187400;23;20362;-88
2021/01/10 00:54:59;;;;;;;35.17;17.27;;;;;;;;;;6187701;23;20100;-87
2021/01/10 00:57:25;;;;;;;31.08;16.88;;;;;;;;;;6187457;23;20048;-87
2021/01/10 00:59:51;;;;;;;35.65;18.10;;;;;;;;;;6188096;23;20049;-87
2021/01/10 01:02:18;;;;;;;33.85;18.48;;;;;;;;;;6187227;23;20040;-87
2021/01/10 01:04:46;;;;;;;36.78;18.33;;;;;;;;;;6187895;23;20028;-87
2021/01/10 01:07:12;;;;;;;32.05;18.38;;;;;;;;;;6186663;23;20023;-87
2021/01/10 01:09:38;;;;;;;29.50;16.65;;;;;;;;;;6186832;23;20446;-88
2021/01/10 01:12:05;;;;;;;33.78;18.00;;;;;;;;;;6187371;23;20071;-87
2021/01/10 01:14:32;;;;;;;30.55;16.92;;;;;;;;;;6186892;23;20084;-87
2021/01/10 01:16:58;;;;;;;31.52;16.25;;;;;;;;;;6187088;23;20342;-87
2021/01/10 01:19:25;;;;;;;31.15;18.08;;;;;;;;;;6187069;23;20075;-87
2021/01/10 01:21:51;;;;;;;29.92;17.02;;;;;;;;;;6186733;23;20018;-87
2021/01/10 01:24:19;;;;;;;31.30;15.65;;;;;;;;;;6187376;23;20025;-87
2021/01/10 01:26:45;;;;;;;30.13;15.98;;;;;;;;;;6187270;23;20067;-90
2021/01/10 01:29:11;;;;;;;30.52;16.70;;;;;;;;;;6187516;23;20028;-87
2021/01/10 01:31:37;;;;;;;27.95;15.25;;;;;;;;;;6187039;23;20017;-87
2021/01/10 01:34:03;;;;;;;34.58;18.23;;;;;;;;;;6187725;23;20168;-87
2021/01/10 01:36:30;;;;;;;27.77;15.35;;;;;;;;;;6187426;23;20017;-87
2021/01/10 01:38:58;;;;;;;32.92;17.02;;;;;;;;;;6187533;23;20021;-87
2021/01/10 01:41:24;;;;;;;29.73;16.02;;;;;;;;;;6187057;23;20058;-87
2021/01/10 01:43:51;;;;;;;27.17;15.35;;;;;;;;;;6187194;23;20021;-87
2021/01/10 01:46:25;;;;;;;26.38;14.32;;;;;;;;;;6187166;23;20104;-87
2021/01/10 01:48:51;;;;;;;29.17;15.00;;;;;;;;;;6186907;23;20021;-89
2021/01/10 01:51:19;;;;;;;29.35;15.45;;;;;;;;;;6186809;23;20422;-87
2021/01/10 01:53:46;;;;;;;30.10;15.77;;;;;;;;;;6186787;23;20048;-89
2021/01/10 01:56:12;;;;;;;28.35;14.00;;;;;;;;;;6186472;23;20025;-88
2021/01/10 01:58:38;;;;;;;33.63;16.10;;;;;;;;;;6186428;23;20075;-88
2021/01/10 02:01:05;;;;;;;30.90;16.48;;;;;;;;;;6187816;23;20025;-88
2021/01/10 02:03:35;;;;;;;27.70;16.02;;;;;;;;;;6164617;23;20140;-83
2021/01/10 02:06:07;;;;;;;30.15;16.85;;;;;;;;;;6159504;23;20013;-83
2021/01/10 02:08:33;;;;;;;32.92;17.10;;;;;;;;;;6160114;23;20021;-83
2021/01/10 02:11:02;;;;;;;28.45;15.25;;;;;;;;;;6159572;23;20017;-82
2021/01/10 02:13:31;;;;;;;26.92;15.43;;;;;;;;;;6159726;23;20076;-82
2021/01/10 02:15:58;;;;;;;26.38;14.93;;;;;;;;;;6160234;23;20049;-83
2021/01/10 02:18:24;;;;;;;30.10;16.80;;;;;;;;;;6160598;23;20017;-83
2021/01/10 02:20:51;;;;;;;29.38;15.57;;;;;;;;;;6162123;23;20013;-83
2021/01/10 02:23:20;;;;;;;25.15;14.32;;;;;;;;;;6161033;23;20037;-83
2021/01/10 02:25:48;;;;;;;30.77;16.40;;;;;;;;;;6160826;23;20096;-83
2021/01/10 02:28:15;;;;;;;29.23;16.27;;;;;;;;;;6160094;23;20477;-83
2021/01/10 02:30:43;;;;;;;28.13;15.40;;;;;;;;;;6159045;23;20447;-83
2021/01/10 02:33:12;;;;;;;26.15;15.25;;;;;;;;;;6159505;23;20025;-83
2021/01/10 02:35:39;;;;;;;29.33;15.82;;;;;;;;;;6160069;23;20018;-82
2021/01/10 02:38:25;;;;;;;29.80;16.40;;;;;;;;;;6160528;23;20017;-83
2021/01/10 02:40:57;;;;;;;30.30;16.67;;;;;;;;;;6160022;23;20132;-82
2021/01/10 02:43:25;;;;;;;28.13;15.18;;;;;;;;;;6159404;23;20029;-83
2021/01/10 02:45:56;;;;;;;29.80;16.00;;;;;;;;;;6159624;23;20017;-83
2021/01/10 02:48:22;;;;;;;35.28;16.67;;;;;;;;;;6160180;23;20018;-83
2021/01/10 02:50:48;;;;;;;31.90;17.33;;;;;;;;;;6159864;23;20024;-82
2021/01/10 02:53:14;;;;;;;30.13;16.33;;;;;;;;;;6158922;23;20013;-82
2021/01/10 02:55:40;;;;;;;28.35;16.10;;;;;;;;;;6160099;23;20095;-83
2021/01/10 02:58:11;;;;;;;28.48;16.52;;;;;;;;;;6159737;23;20064;-83
2021/01/10 03:00:39;;;;;;;27.70;16.00;;;;;;;;;;6159302;23;20088;-83
2021/01/10 03:03:05;;;;;;;25.50;14.77;;;;;;;;;;6187932;23;20048;-83
2021/01/10 03:05:33;;;;;;;30.60;15.40;;;;;;;;;;6189200;23;20350;-82
2021/01/10 03:07:59;;;;;;;30.02;16.20;;;;;;;;;;6190241;23;20032;-82
2021/01/10 03:10:25;;;;;;;31.60;16.38;;;;;;;;;;6191160;23;20323;-82
2021/01/10 03:12:52;;;;;;;30.08;16.70;;;;;;;;;;6191187;23;20020;-83
2021/01/10 03:15:18;;;;;;;30.60;16.08;;;;;;;;;;6190660;23;20021;-83
2021/01/10 03:17:46;;;;;;;29.13;15.57;;;;;;;;;;6190928;23;20017;-82
2021/01/10 03:20:13;;;;;;;26.23;15.85;;;;;;;;;;6191016;23;20017;-83
2021/01/10 03:22:39;;;;;;;28.65;16.08;;;;;;;;;;6191338;23;20024;-82
2021/01/10 03:25:07;;;;;;;27.95;15.07;;;;;;;;;;6191889;23;20013;-82
2021/01/10 03:27:33;;;;;;;26.52;14.60;;;;;;;;;;6190074;23;20013;-82
2021/01/10 03:29:59;;;;;;;28.52;15.90;;;;;;;;;;6191147;23;20068;-82
2021/01/10 03:32:26;;;;;;;30.35;15.57;;;;;;;;;;6190627;23;20013;-82
2021/01/10 03:34:52;;;;;;;26.73;13.98;;;;;;;;;;6190772;23;20017;-83
2021/01/10 03:37:18;;;;;;;23.05;14.10;;;;;;;;;;6191463;23;20027;-82
2021/01/10 03:39:44;;;;;;;26.83;15.25;;;;;;;;;;6191837;23;20024;-83
2021/01/10 03:42:10;;;;;;;28.83;15.70;;;;;;;;;;6189110;23;20027;-83
2021/01/10 03:44:36;;;;;;;26.10;14.93;;;;;;;;;;6190402;23;20017;-83
2021/01/10 03:47:02;;;;;;;29.70;14.35;;;;;;;;;;6192044;23;20013;-82
2021/01/10 03:49:29;;;;;;;27.83;15.05;;;;;;;;;;6191116;23;20067;-82
2021/01/10 03:51:55;;;;;;;26.75;14.18;;;;;;;;;;6191010;23;20303;-82
2021/01/10 03:54:21;;;;;;;25.80;14.50;;;;;;;;;;6191628;23;20024;-82
2021/01/10 03:56:47;;;;;;;32.22;16.10;;;;;;;;;;6165524;23;20017;-83
2021/01/10 03:59:13;;;;;;;27.73;14.27;;;;;;;;;;6192686;23;20013;-83
2021/01/10 04:01:38;;;;;;;26.45;14.43;;;;;;;;;;6191015;23;20493;-82
2021/01/10 04:04:04;;;;;;;26.45;13.98;;;;;;;;;;6192182;23;20395;-83
2021/01/10 04:06:31;;;;;;;24.85;14.48;;;;;;;;;;6191194;23;20330;-83
2021/01/10 04:08:57;;;;;;;31.65;16.48;;;;;;;;;;6165737;23;20029;-82
2021/01/10 04:11:23;;;;;;;27.63;15.25;;;;;;;;;;6191751;23;20441;-82
2021/01/10 04:13:50;;;;;;;24.35;14.32;;;;;;;;;;6190776;23;20017;-83
2021/01/10 04:16:16;;;;;;;27.90;14.63;;;;;;;;;;6191900;23;20024;-83
2021/01/10 04:18:42;;;;;;;26.58;13.93;;;;;;;;;;6190888;23;20018;-83
2021/01/10 04:21:08;;;;;;;27.08;13.65;;;;;;;;;;6192608;23;20020;-82
2021/01/10 04:23:35;;;;;;;27.88;15.20;;;;;;;;;;6194032;23;20028;-82
2021/01/10 04:26:01;;;;;;;27.15;14.40;;;;;;;;;;6191136;23;20300;-82
2021/01/10 04:28:27;;;;;;;26.77;13.95;;;;;;;;;;6191140;23;20017;-82
2021/01/10 04:30:53;;;;;;;27.00;14.18;;;;;;;;;;6190521;23;20304;-82
2021/01/10 04:33:19;;;;;;;27.45;14.30;;;;;;;;;;6190790;23;20017;-82
2021/01/10 04:35:45;;;;;;;26.65;14.90;;;;;;;;;;6190730;23;20013;-83
2021/01/10 04:38:11;;;;;;;22.65;13.60;;;;;;;;;;6190405;23;20017;-82
2021/01/10 04:40:38;;;;;;;28.10;14.07;;;;;;;;;;6190192;23;20032;-82
2021/01/10 04:43:04;;;;;;;24.30;13.57;;;;;;;;;;6189910;23;20021;-82
2021/01/10 04:45:30;;;;;;;24.02;12.45;;;;;;;;;;6190664;23;20024;-82
2021/01/10 04:47:57;;;;;;;26.77;14.32;;;;;;;;;;6189449;23;20017;-82
2021/01/10 04:50:23;;;;;;;25.05;13.55;;;;;;;;;;6190478;23;20023;-82
2021/01/10 04:52:53;;;;;;;24.70;13.77;;;;;;;;;;6191198;23;20020;-82
2021/01/10 04:55:20;;;;;;;23.38;12.35;;;;;;;;;;6189992;23;20013;-82
2021/01/10 04:57:49;;;;;;;25.40;13.57;;;;;;;;;;6189936;23;20017;-83
2021/01/10 05:00:16;;;;;;;26.20;15.13;;;;;;;;;;6189949;23;20013;-82
2021/01/10 05:02:46;;;;;;;27.80;14.65;;;;;;;;;;6189450;23;20013;-82
2021/01/10 05:05:12;;;;;;;25.15;13.27;;;;;;;;;;6189671;23;20013;-82
2021/01/10 05:07:39;;;;;;;25.65;14.55;;;;;;;;;;6189583;23;20028;-82
2021/01/10 05:10:06;;;;;;;26.83;14.07;;;;;;;;;;6189219;23;20016;-82
2021/01/10 05:12:32;;;;;;;30.02;14.43;;;;;;;;;;6189346;23;20017;-82
2021/01/10 05:14:59;;;;;;;27.48;14.63;;;;;;;;;;6190641;23;20027;-82
2021/01/10 05:17:25;;;;;;;27.70;14.23;;;;;;;;;;6188316;23;20071;-82
2021/01/10 05:19:52;;;;;;;26.35;14.85;;;;;;;;;;6189166;23;20044;-82
2021/01/10 05:22:20;;;;;;;29.85;15.07;;;;;;;;;;6189848;23;20087;-82
2021/01/10 05:24:47;;;;;;;26.38;14.05;;;;;;;;;;6189876;23;20115;-82
2021/01/10 05:27:13;;;;;;;21.30;12.10;;;;;;;;;;6189743;23;20013;-83
2021/01/10 05:29:42;;;;;;;26.23;13.07;;;;;;;;;;6189949;23;20013;-82
2021/01/10 05:32:09;;;;;;;24.42;12.43;;;;;;;;;;6190325;23;20017;-82
2021/01/10 05:34:35;;;;;;;25.25;12.63;;;;;;;;;;6189958;23;20013;-82
2021/01/10 05:37:12;;;;;;;20.63;12.35;;;;;;;;;;6189544;23;20465;-82
2021/01/10 05:39:43;;;;;;;24.52;12.20;;;;;;;;;;6188939;23;20446;-83
2021/01/10 05:42:09;;;;;;;25.80;12.10;;;;;;;;;;6189878;23;20040;-83
2021/01/10 05:44:48;;;;;;;23.98;12.85;;;;;;;;;;6189339;23;20402;-82
2021/01/10 05:47:15;;;;;;;23.27;12.40;;;;;;;;;;6190290;23;20073;-82
2021/01/10 05:49:44;;;;;;;19.02;10.98;;;;;;;;;;6189362;23;20016;-82
2021/01/10 05:52:11;;;;;;;25.58;12.80;;;;;;;;;;6189575;23;20452;-82
2021/01/10 05:54:38;;;;;;;23.70;12.60;;;;;;;;;;6188758;23;20014;-82
2021/01/10 05:57:05;;;;;;;25.48;12.77;;;;;;;;;;6189856;23;20023;-82
2021/01/10 05:59:34;;;;;;;23.92;13.60;;;;;;;;;;6189934;23;20017;-82
2021/01/10 06:02:01;;;;;;;26.45;13.32;;;;;;;;;;6191703;23;20013;-83
2021/01/10 06:04:28;;;;;;;23.80;12.60;;;;;;;;;;6191378;23;20028;-82
2021/01/10 06:06:54;;;;;;;24.27;12.23;;;;;;;;;;6190639;23;20321;-83
2021/01/10 06:09:21;;;;;;;24.17;11.55;;;;;;;;;;6190984;23;20017;-82
2021/01/10 06:11:47;;;;;;;23.38;11.65;;;;;;;;;;6189536;23;20465;-82
2021/01/10 06:14:19;;;;;;;23.77;11.65;;;;;;;;;;6165295;23;20295;-83
2021/01/10 06:16:52;;;;;;;27.80;12.95;;;;;;;;;;6190616;23;20021;-83
2021/01/10 06:19:18;;;;;;;25.75;13.80;;;;;;;;;;6189891;23;20017;-83
2021/01/10 06:21:47;;;;;;;28.77;13.65;;;;;;;;;;6190262;23;20013;-83
2021/01/10 06:24:17;;;;;;;25.95;14.00;;;;;;;;;;6189306;23;20013;-82
2021/01/10 06:26:48;;;;;;;27.83;13.63;;;;;;;;;;6191150;23;20023;-82
2021/01/10 06:29:14;;;;;;;27.20;14.80;;;;;;;;;;6190944;23;20013;-82
2021/01/10 06:31:46;;;;;;;31.15;15.18;;;;;;;;;;6190203;23;20020;-82
2021/01/10 06:34:12;;;;;;;28.15;15.70;;;;;;;;;;6191186;23;20024;-83
2021/01/10 06:36:39;;;;;;;30.10;13.77;;;;;;;;;;6189728;23;20021;-82
2021/01/10 06:39:08;;;;;;;28.02;14.05;;;;;;;;;;6189577;23;20017;-82
2021/01/10 06:41:50;;;;;;;26.58;14.65;;;;;;;;;;6189628;23;20017;-82
2021/01/10 06:44:20;;;;;;;31.42;14.77;;;;;;;;;;6191556;23;20450;-82
2021/01/10 06:46:48;;;;;;;33.22;14.98;;;;;;;;;;6191632;23;20017;-82
2021/01/10 06:49:15;;;;;;;26.30;13.35;;;;;;;;;;6189957;23;20017;-83
2021/01/10 06:51:44;;;;;;;28.67;14.27;;;;;;;;;;6191258;23;20013;-83
2021/01/10 06:54:11;;;;;;;32.40;14.00;;;;;;;;;;6192345;23;20020;-83
2021/01/10 06:56:38;;;;;;;28.38;14.63;;;;;;;;;;6191327;23;20339;-82
2021/01/10 06:59:06;;;;;;;28.60;14.02;;;;;;;;;;6190967;23;20013;-83
2021/01/10 07:01:59;;;;;;;23.90;13.68;;;;;;;;;;6191641;23;20063;-83
2021/01/10 07:05:09;;;;;;;26.40;13.07;;;;;;;;;;6170884;23;20013;-82
2021/01/10 07:07:43;;;;;;;32.03;15.38;;;;;;;;;;6191004;23;20021;-82
2021/01/10 07:10:12;;;;;;;28.35;14.68;;;;;;;;;;6191338;23;20016;-82
2021/01/10 07:12:38;;;;;;;31.20;14.57;;;;;;;;;;6191804;23;20020;-82
2021/01/10 07:15:26;;;;;;;28.65;14.13;;;;;;;;;;6190893;23;20013;-82
2021/01/10 07:18:03;;;;;;;30.90;15.20;;;;;;;;;;6191034;23;20013;-83
2021/01/10 07:20:34;;;;;;;26.80;14.43;;;;;;;;;;6192757;23;20023;-82
2021/01/10 07:23:32;;;;;;;33.17;15.52;;;;;;;;;;6192218;23;20021;-82
2021/01/10 07:26:00;;;;;;;37.08;18.05;;;;;;;;;;6190595;23;20025;-82
2021/01/10 07:28:40;;;;;;;36.17;17.52;;;;;;;;;;6191209;23;20013;-83
2021/01/10 07:31:18;;;;;;;33.15;16.25;;;;;;;;;;6189704;23;20017;-82
2021/01/10 07:33:44;;;;;;;33.83;16.38;;;;;;;;;;6191703;23;20017;-82
2021/01/10 07:36:11;;;;;;;30.25;15.27;;;;;;;;;;6164184;23;20021;-82
2021/01/10 07:38:37;;;;;;;33.75;16.00;;;;;;;;;;6190135;23;20442;-82
2021/01/10 07:41:23;;;;;;;32.33;15.40;;;;;;;;;;6190953;23;20024;-83
2021/01/10 07:43:51;;;;;;;34.65;15.52;;;;;;;;;;6191559;23;20016;-83
2021/01/10 07:47:00;;;;;;;31.52;15.15;;;;;;;;;;6190387;23;20036;-82
2021/01/10 07:49:28;;;;;;;36.88;15.77;;;;;;;;;;6189863;23;20013;-82
2021/01/10 07:51:54;;;;;;;36.72;16.40;;;;;;;;;;6190083;23;20017;-82
2021/01/10 07:54:52;;;;;;;35.50;15.40;;;;;;;;;;6190023;23;20471;-82
2021/01/10 07:57:36;;;;;;;33.33;16.80;;;;;;;;;;6190044;23;20051;-83
2021/01/10 08:00:10;;;;;;;35.97;15.88;;;;;;;;;;6166190;23;20013;-82
2021/01/10 08:02:52;;;;;;;39.42;16.35;;;;;;;;;;6184045;23;20072;-82
2021/01/10 08:05:19;;;;;;;43.40;18.05;;;;;;;;;;6190209;23;20021;-83
2021/01/10 08:07:56;;;;;;;43.55;19.45;;;;;;;;;;6190276;23;20016;-82
2021/01/10 08:10:24;;;;;;;34.05;15.50;;;;;;;;;;6183829;23;20013;-82
2021/01/10 08:12:51;;;;;;;32.00;16.02;;;;;;;;;;6190001;23;20318;-83
2021/01/10 08:15:18;;;;;;;36.60;16.50;;;;;;;;;;6189439;23;20096;-83
2021/01/10 08:17:44;;;;;;;41.65;15.73;;;;;;;;;;6188564;23;20017;-83
2021/01/10 08:20:12;;;;;;;32.95;16.48;;;;;;;;;;6188129;23;20013;-88
2021/01/10 08:22:38;;;;;;;36.33;17.80;;;;;;;;;;6189843;23;20020;-83
2021/01/10 08:25:06;;;;;;;34.70;16.77;;;;;;;;;;6189556;23;20020;-83
2021/01/10 08:27:32;;;;;;;29.73;14.70;;;;;;;;;;6189750;23;20017;-82
2021/01/10 08:29:59;;;;;;;31.55;16.00;;;;;;;;;;6189726;23;20017;-82
2021/01/10 08:32:25;;;;;;;29.40;13.52;;;;;;;;;;6190251;23;20322;-82
2021/01/10 08:34:54;;;;;;;32.70;15.25;;;;;;;;;;6190345;23;20016;-82
2021/01/10 08:37:23;;;;;;;29.95;15.52;;;;;;;;;;6189455;23;20064;-82
2021/01/10 08:39:58;;;;;;;31.05;14.23;;;;;;;;;;6186971;23;20334;-82
2021/01/10 08:42:25;;;;;;;28.50;14.07;;;;;;;;;;6188784;23;20021;-82
2021/01/10 08:44:51;;;;;;;31.92;14.68;;;;;;;;;;6189699;23;20304;-82
2021/01/10 08:47:17;;;;;;;30.67;15.55;;;;;;;;;;6187765;23;20013;-82
2021/01/10 08:49:44;;;;;;;32.45;15.15;;;;;;;;;;6189864;23;20014;-82
2021/01/10 08:52:10;;;;;;;27.83;13.55;;;;;;;;;;6187570;23;20465;-82
2021/01/10 08:54:36;;;;;;;26.23;13.63;;;;;;;;;;6190845;23;20029;-83
2021/01/10 08:57:02;;;;;;;28.05;12.70;;;;;;;;;;6190315;23;20406;-82
2021/01/10 08:59:35;;;;;;;30.83;14.43;;;;;;;;;;6188369;23;20078;-83
2021/01/10 09:02:06;;;;;;;27.80;12.40;;;;;;;;;;6189352;23;20016;-83
2021/01/10 09:04:38;;;;;;;29.77;16.42;;;;;;;;;;6188636;23;20017;-82
2021/01/10 09:07:06;;;;;;;26.17;13.35;;;;;;;;;;6189958;23;20013;-82
2021/01/10 09:09:42;;;;;;;26.25;14.85;;;;;;;;;;6189724;23;20013;-82
2021/01/10 09:12:16;;;;;;;27.45;13.15;;;;;;;;;;6189266;23;20075;-82
2021/01/10 09:14:46;;;;;;;24.02;12.93;;;;;;;;;;6189735;23;20017;-82
2021/01/10 09:17:13;;;;;;;27.52;14.30;;;;;;;;;;6188705;23;20016;-83
2021/01/10 09:19:40;;;;;;;25.73;12.48;;;;;;;;;;6193464;23;20040;-84
2021/01/10 09:22:07;;;;;;;26.17;13.32;;;;;;;;;;6193725;23;20013;-83
2021/01/10 09:24:33;;;;;;;26.13;13.38;;;;;;;;;;6194429;23;20016;-83
2021/01/10 09:27:10;;;;;;;26.35;13.43;;;;;;;;;;6194169;23;20016;-83
2021/01/10 09:29:36;;;;;;;27.17;13.30;;;;;;;;;;6194968;23;20092;-84
2021/01/10 09:32:02;;;;;;;26.10;13.88;;;;;;;;;;6190851;23;20017;-84
2021/01/10 09:34:28;;;;;;;30.13;15.88;;;;;;;;;;6196356;23;20028;-85
2021/01/10 09:37:05;;;;;;;23.73;11.20;;;;;;;;;;6197666;23;20017;-85
2021/01/10 09:39:42;;;;;;;28.42;13.98;;;;;;;;;;6198670;23;20019;-85
2021/01/10 09:42:08;;;;;;;;;;;;;;;;;;6200197;23;20017;-85
2021/01/10 09:44:34;;;;;;;23.42;11.55;;;;;;;;;;6200111;23;19912;-84
2021/01/10 09:47:00;;;;;;;24.15;12.10;;;;;;;;;;6199249;23;20102;-85
2021/01/10 09:49:30;;;;;;;27.52;15.07;;;;;;;;;;6170529;23;20013;-85
2021/01/10 09:51:57;;;;;;;24.25;13.55;;;;;;;;;;6194236;23;20029;-84
2021/01/10 09:54:26;;;;;;;30.50;14.80;;;;;;;;;;6194021;23;20021;-85
2021/01/10 09:56:53;;;;;;;23.52;11.93;;;;;;;;;;6193812;23;20028;-84
2021/01/10 09:59:33;;;;;;;30.70;14.10;;;;;;;;;;6195771;23;20067;-85
2021/01/10 10:01:59;;;;;;;28.27;13.60;;;;;;;;;;6195759;23;20025;-84
2021/01/10 10:04:26;;;;;;;29.80;15.38;;;;;;;;;;6194542;23;20013;-84
2021/01/10 10:06:52;;;;;;;34.33;17.30;;;;;;;;;;6197362;23;20593;-84
2021/01/10 10:09:18;;;;;;;29.67;14.98;;;;;;;;;;6194420;23;20013;-83
2021/01/10 10:11:44;;;;;;;31.83;16.05;;;;;;;;;;6194748;23;20060;-83
2021/01/10 10:14:11;;;;;;;33.00;17.30;;;;;;;;;;6194101;23;20063;-84
2021/01/10 10:16:37;;;;;;;33.10;18.08;;;;;;;;;;6193847;23;20025;-83
2021/01/10 10:19:03;;;;;;;27.95;15.20;;;;;;;;;;6193487;23;20024;-83
2021/01/10 10:21:29;;;;;;;29.23;14.65;;;;;;;;;;6193135;23;20017;-83
2021/01/10 10:23:56;;;;;;;30.95;15.95;;;;;;;;;;6166360;23;20024;-83
2021/01/10 10:26:22;;;;;;;29.67;15.15;;;;;;;;;;6167966;23;20322;-83
2021/01/10 10:28:48;;;;;;;28.33;15.90;;;;;;;;;;6193473;23;20013;-83
2021/01/10 10:31:14;;;;;;;30.15;15.73;;;;;;;;;;6169743;23;20028;-84
2021/01/10 10:33:41;;;;;;;27.05;14.43;;;;;;;;;;6169722;23;20013;-84
2021/01/10 10:36:08;;;;;;;29.85;14.95;;;;;;;;;;6195054;23;20009;-84
2021/01/10 10:38:34;;;;;;;27.48;14.57;;;;;;;;;;6169926;23;20044;-84
2021/01/10 10:41:00;;;;;;;28.08;15.50;;;;;;;;;;6145147;23;20076;-84
2021/01/10 10:43:26;;;;;;;31.20;16.38;;;;;;;;;;6196633;23;20024;-84
2021/01/10 10:45:53;;;;;;;34.42;18.63;;;;;;;;;;6194979;23;20013;-84
2021/01/10 10:48:20;;;;;;;34.17;17.75;;;;;;;;;;6195986;23;20028;-84
2021/01/10 10:50:46;;;;;;;28.80;15.60;;;;;;;;;;6170017;23;20017;-84
2021/01/10 10:53:12;;;;;;;29.27;15.30;;;;;;;;;;6195408;23;20345;-84
2021/01/10 10:55:38;;;;;;;31.92;15.73;;;;;;;;;;6170438;23;20020;-83
2021/01/10 10:58:04;;;;;;;28.63;15.43;;;;;;;;;;6194224;23;20100;-83
2021/01/10 11:00:32;;;;;;;28.13;14.52;;;;;;;;;;6168218;23;20438;-85
2021/01/10 11:03:00;;;;;;;29.02;14.93;;;;;;;;;;6194631;23;20019;-84
2021/01/10 11:05:26;;;;;;;30.63;15.10;;;;;;;;;;6166235;23;20019;-84
2021/01/10 11:07:52;;;;;;;30.13;16.00;;;;;;;;;;6163672;23;20076;-84
2021/01/10 11:10:18;;;;;;;33.17;16.90;;;;;;;;;;6189381;23;20048;-87
2021/01/10 11:12:44;;;;;;;30.85;16.63;;;;;;;;;;6190980;23;20119;-84
2021/01/10 11:15:10;;;;;;;30.20;14.90;;;;;;;;;;6165389;23;20017;-84
2021/01/10 11:17:37;;;;;;;30.45;16.05;;;;;;;;;;6165079;23;20013;-84
2021/01/10 11:20:06;;;;;;;32.03;16.67;;;;;;;;;;6190699;23;20021;-84
2021/01/10 11:22:35;;;;;;;29.38;16.17;;;;;;;;;;6191512;23;20020;-83
2021/01/10 11:28:25;;;;;;;31.05;16.55;;;;;;;;;;6169789;23;20049;-82
2021/01/10 11:30:52;;;;;;;28.35;15.88;;;;;;;;;;6160732;23;20022;-81
2021/01/10 11:33:18;;;;;;;33.92;17.35;;;;;;;;;;6161268;23;20045;-82
2021/01/10 11:35:45;;;;;;;31.98;15.75;;;;;;;;;;6162073;23;20025;-81
2021/01/10 11:38:11;;;;;;;31.75;17.10;;;;;;;;;;6161501;23;20026;-81
2021/01/10 11:40:37;;;;;;;34.80;17.25;;;;;;;;;;6161206;23;20032;-81
2021/01/10 11:43:03;;;;;;;28.40;15.77;;;;;;;;;;6160167;23;20041;-82
2021/01/10 11:45:29;;;;;;;30.13;15.52;;;;;;;;;;6160033;23;20052;-82
2021/01/10 11:47:55;;;;;;;31.02;16.92;;;;;;;;;;6158784;23;20021;-81
2021/01/10 11:50:20;;;;;;;33.33;17.60;;;;;;;;;;6159551;23;20048;-82
2021/01/10 11:52:47;;;;;;;32.35;17.77;;;;;;;;;;6159486;23;20513;-82
2021/01/10 11:55:13;;;;;;;29.80;16.42;;;;;;;;;;6160578;23;20028;-81
2021/01/10 11:57:39;;;;;;;30.85;16.25;;;;;;;;;;6159698;23;20667;-81
2021/01/10 12:00:07;;;;;;;34.45;18.13;;;;;;;;;;6160359;23;20025;-81
2021/01/10 12:02:33;;;;;;;31.23;16.40;;;;;;;;;;6172059;23;20021;-81
2021/01/10 12:04:59;;;;;;;28.83;16.67;;;;;;;;;;6190180;23;20025;-82
2021/01/10 12:07:25;;;;;;;30.67;17.15;;;;;;;;;;6189905;23;20104;-82
2021/01/10 12:09:51;;;;;;;29.83;16.40;;;;;;;;;;6190646;23;20021;-82
2021/01/10 12:12:18;;;;;;;34.88;18.13;;;;;;;;;;6190411;23;20151;-82
2021/01/10 12:14:43;;;;;;;30.70;17.00;;;;;;;;;;6191334;23;20017;-81
2021/01/10 12:17:09;;;;;;;40.97;20.02;;;;;;;;;;6191442;23;20028;-81
2021/01/10 12:19:35;;;;;;;32.95;17.80;;;;;;;;;;6190761;23;20144;-81
2021/01/10 12:22:01;;;;;;;32.45;18.38;;;;;;;;;;6189513;23;20021;-81
2021/01/10 12:24:27;;;;;;;33.38;17.90;;;;;;;;;;6189896;23;20049;-81
2021/01/10 12:26:54;;;;;;;34.28;18.13;;;;;;;;;;6187545;23;20064;-81
2021/01/10 12:29:20;;;;;;;35.42;18.75;;;;;;;;;;6189394;23;20024;-81
2021/01/10 12:31:46;;;;;;;31.63;18.75;;;;;;;;;;6188996;23;20350;-81
2021/01/10 12:34:13;;;;;;;32.92;18.30;;;;;;;;;;6189379;23;20027;-81
2021/01/10 12:36:40;;;;;;;31.83;18.10;;;;;;;;;;6189165;23;20021;-81
2021/01/10 12:39:06;;;;;;;32.38;17.20;;;;;;;;;;6188574;23;20021;-81
2021/01/10 12:41:32;;;;;;;34.42;18.20;;;;;;;;;;6188872;23;20021;-81
2021/01/10 12:43:59;;;;;;;31.50;17.75;;;;;;;;;;6189293;23;20338;-81
2021/01/10 12:46:29;;;;;;;32.80;16.98;;;;;;;;;;6189211;23;20025;-81
2021/01/10 12:48:55;;;;;;;32.22;17.15;;;;;;;;;;6189316;23;20027;-81
2021/01/10 12:51:21;;;;;;;31.75;16.27;;;;;;;;;;6189301;23;20017;-81
2021/01/10 12:53:47;;;;;;;29.23;16.98;;;;;;;;;;6187213;23;20017;-81
2021/01/10 12:56:15;;;;;;;34.30;18.55;;;;;;;;;;6187870;23;20091;-81
2021/01/10 12:58:43;;;;;;;28.88;16.25;;;;;;;;;;6188954;23;20550;-81
2021/01/10 13:01:10;;;;;;;30.75;15.75;;;;;;;;;;6187924;23;20073;-81
2021/01/10 13:03:36;;;;;;;32.63;16.58;;;;;;;;;;6186303;23;20043;-80
2021/01/10 13:06:02;;;;;;;33.20;18.80;;;;;;;;;;6186161;23;20028;-81
2021/01/10 13:08:28;;;;;;;30.02;16.15;;;;;;;;;;6188501;23;20025;-81
2021/01/10 13:10:54;;;;;;;29.48;16.88;;;;;;;;;;6187699;23;20059;-81
2021/01/10 13:13:20;;;;;;;29.73;16.90;;;;;;;;;;6188113;23;20017;-81
2021/01/10 13:15:46;;;;;;;31.58;17.35;;;;;;;;;;6187379;23;20068;-81
2021/01/10 13:18:13;;;;;;;34.45;16.77;;;;;;;;;;6187631;23;20048;-80
2021/01/10 13:20:39;;;;;;;31.98;16.98;;;;;;;;;;6187391;23;20017;-80
2021/01/10 13:23:05;;;;;;;34.55;17.90;;;;;;;;;;6188281;23;20056;-81
2021/01/10 13:25:31;;;;;;;35.75;19.33;;;;;;;;;;6188175;23;20025;-81
2021/01/10 13:27:57;;;;;;;40.55;19.55;;;;;;;;;;6187286;23;20025;-81
2021/01/10 13:30:23;;;;;;;34.95;18.98;;;;;;;;;;6187692;23;20028;-81
2021/01/10 13:32:49;;;;;;;33.95;18.35;;;;;;;;;;6188709;23;20017;-81
2021/01/10 13:35:19;;;;;;;31.80;16.67;;;;;;;;;;6187568;23;20020;-81
2021/01/10 13:37:45;;;;;;;35.20;19.60;;;;;;;;;;6190385;23;20430;-81
2021/01/10 13:40:12;;;;;;;36.40;17.30;;;;;;;;;;6188986;23;20024;-82
2021/01/10 13:42:38;;;;;;;29.95;16.60;;;;;;;;;;6187345;23;20096;-82
2021/01/10 13:45:06;;;;;;;29.35;16.38;;;;;;;;;;6187956;23;20024;-82
2021/01/10 13:47:32;;;;;;;31.67;16.33;;;;;;;;;;6186329;23;20024;-81
2021/01/10 13:49:58;;;;;;;27.88;15.93;;;;;;;;;;6184943;23;20028;-82
2021/01/10 13:52:25;;;;;;;33.55;17.20;;;;;;;;;;6187085;23;20074;-82
2021/01/10 13:54:53;;;;;;;29.38;16.52;;;;;;;;;;6187110;23;20020;-82
2021/01/10 13:57:19;;;;;;;30.45;15.32;;;;;;;;;;6184192;23;20021;-82
2021/01/10 13:59:45;;;;;;;29.83;16.25;;;;;;;;;;6187521;23;20025;-82
2021/01/10 14:02:11;;;;;;;27.13;15.23;;;;;;;;;;6188300;23;20031;-82
2021/01/10 14:04:37;;;;;;;30.17;16.80;;;;;;;;;;6188992;23;20031;-82
2021/01/10 14:07:03;;;;;;;33.15;18.17;;;;;;;;;;6188909;23;20103;-82
2021/01/10 14:09:30;;;;;;;33.58;17.60;;;;;;;;;;6190057;23;20025;-82
2021/01/10 14:11:56;;;;;;;31.83;17.48;;;;;;;;;;6186241;23;20349;-82
2021/01/10 14:14:22;;;;;;;31.77;16.90;;;;;;;;;;6187906;23;20327;-82
2021/01/10 14:16:48;;;;;;;28.42;15.85;;;;;;;;;;6187351;23;20025;-82
2021/01/10 14:19:14;;;;;;;29.05;15.85;;;;;;;;;;6187376;23;20021;-82
2021/01/10 14:21:40;;;;;;;28.13;16.00;;;;;;;;;;6187889;23;20021;-82
2021/01/10 14:24:08;;;;;;;27.42;14.70;;;;;;;;;;6188942;23;20071;-82
2021/01/10 14:26:36;;;;;;;29.17;16.25;;;;;;;;;;6189031;23;20450;-82